Flugplatz Erfurt

Bericht für EDDE

vom 12.12. um 22:50 UTC

Wind 6 kt aus 50°

Sichtweite 5000 m

feuchter Dunst

aufgebrochene Bewölkung in 500 ft

Temperatur 0.0°C

Taupunkt 0.0°C

Luftfeuchtigkeit 100%

Luftdruck 1023 hPa

EDDE 122250Z 05006KT 5000 BR BKN005 00/M00 Q1023

Prognose für EDDE

vom 12.12. um 18:09 UTC

Am 12.12. zwischen 18:00 UTC und 04:00 UTC

Wind 4 kt aus 60°

Sichtweite 5000 m

feuchter Dunst

aufgelockert bewölkt in 500 ft

aufgebrochene Bewölkung in 1500 ft


Am 12.12. zwischen 18:00 UTC und 10:00 UTC zeitweise mit einer Wahrscheinlichkeit von 40%

Sichtweite 400 m

schwacher Schneegriesel

Code: FZFG

bedeckt in 100 ft


Am 12.12. zwischen 18:00 UTC und 12:00 UTC zeitweise

Sichtweite 1200 m

Nebelschwaden


Zwischen 04:00 und 07:00 UTC übergehend zu

Wind 9 kt aus 70°

Sichtweite 5000 m

feuchter Dunst

aufgelockert bewölkt in 500 ft

aufgebrochene Bewölkung in 1500 ft

TAF AMD EDDE 121809Z 1218/1318 06004KT 5000 BR SCT005 BKN015 TEMPO 1218/1312 1200 BCFG PROB40 TEMPO 1218/1310 0400 -SG FZFG OVC001 BECMG 1304/1307 07009KT
Impressum